Newport (Isle of Wight), United Kingdom
Current Conditions -  °F | °C
As of 9:50 PM on Wednesday 17 Dec 2014 (Local Time) from EGHI Reporting Station
Broken Clouds Broken Clouds  
Wind Chill: 54°   Ceiling: 900
Heat Index: 54°   Visibility: 6mi
Dew Point: 52°   Wind: 10mph
Humidity: 94%   Direction: 270°W
Pressure: 29.83"   Gusts: NA
Location:  50.7°N, 1.29°W
Report Text: EGHI 172150Z 27009KT 9000 BKN009 12/11 Q1010
Loading
Personal Weather Stations






























Interactive Weather Map New forecast layout! Learn more

10-Day Weather Forecast

Advertisements
Track Severe Weather on mobile